Time;durP1;ratioP1;P1;durP2;ratioP2;P2;SDS_P1;SDS_P2;PMS_P1;PMS_P2;Temp;Humidity;BMP_temperature;BMP_pressure;BME280_temperature;BME280_humidity;BME280_pressure;Samples;Min_cycle;Max_cycle;Signal;HPM_P1;HPM_P2
2023/11/29 00:01:36;;;;;;;;;;;;;;;3.14;100.00;95128.92;110222;1242;68328;-69
2023/11/29 00:04:06;;;;;;;;;;;;;;;3.16;100.00;95131.39;110253;1243;59678;-68
2023/11/29 00:06:37;;;;;;;;;;;;;;;3.10;100.00;95139.23;110254;1242;59690;-68
2023/11/29 00:09:08;;;;;;;;;;;;;;;3.13;100.00;95145.58;110250;1242;71663;-68
2023/11/29 00:11:38;;;;;;;;;;;;;;;3.07;100.00;95154.11;110224;1242;69190;-68
2023/11/29 00:14:09;;;;;;;;;;;;;;;3.03;100.00;95159.52;110267;1242;70022;-69
2023/11/29 00:16:42;;;;;;;;;;;;;;;3.00;100.00;95167.90;110230;1242;60106;-68
2023/11/29 00:19:18;;;;;;;;;;;;;;;2.97;100.00;95174.28;110224;1242;59640;-68
2023/11/29 00:21:47;;;;;;;;;;;;;;;2.97;100.00;95174.00;110197;1242;71275;-69
2023/11/29 00:24:18;;;;;;;;;;;;;;;2.98;100.00;95178.04;110233;1243;69254;-69
2023/11/29 00:26:50;;;;;;;;;;;;;;;2.97;100.00;95180.85;110267;1242;69334;-69
2023/11/29 00:29:25;;;;;;;;;;;;;;;2.96;100.00;95186.08;110234;1241;59692;-69
2023/11/29 00:31:56;;;;;;;;;;;;;;;2.90;100.00;95192.92;110192;1241;59689;-69
2023/11/29 00:34:28;;;;;;;;;;;;;;;2.95;100.00;95195.79;110177;1241;71664;-69
2023/11/29 00:37:01;;;;;;;;;;;;;;;2.95;100.00;95199.60;110143;1243;68288;-68
2023/11/29 00:39:32;;;;;;;;;;;;;;;2.94;100.00;95204.45;110143;1241;68959;-68
2023/11/29 00:42:04;;;;;;;;;;;;;;;2.96;100.00;95210.19;109942;1242;59733;-68
2023/11/29 00:44:37;;;;;;;;;;;;;;;2.98;100.00;95215.05;110239;1240;59699;-69
2023/11/29 00:47:15;;;;;;;;;;;;;;;2.93;100.00;95225.55;110223;1242;70637;-67
2023/11/29 00:49:52;;;;;;;;;;;;;;;2.92;100.00;95230.82;110141;1244;69234;-69
2023/11/29 00:52:25;;;;;;;;;;;;;;;2.91;100.00;95234.80;110238;1241;68366;-69
2023/11/29 00:54:58;;;;;;;;;;;;;;;2.94;100.00;95233.77;110239;1242;59655;-69
2023/11/29 00:57:29;;;;;;;;;;;;;;;3.03;100.00;95238.71;110273;1242;59646;-69
2023/11/29 01:00:00;;;;;;;;;;;;;;;3.06;100.00;95248.65;110258;1241;71768;-68
2023/11/29 01:02:31;;;;;;;;;;;;;;;2.91;100.00;95259.44;110291;1242;69266;-69
2023/11/29 01:05:03;;;;;;;;;;;;;;;2.99;100.00;95260.16;110236;1243;69103;-69
2023/11/29 01:07:34;;;;;;;;;;;;;;;3.04;100.00;95268.45;110327;1241;59739;-69
2023/11/29 01:10:04;;;;;;;;;;;;;;;3.01;100.00;95275.02;110329;1243;59689;-69
2023/11/29 01:12:38;;;;;;;;;;;;;;;2.93;100.00;95278.40;110207;1241;72291;-70
2023/11/29 01:15:09;;;;;;;;;;;;;;;2.92;100.00;95283.30;110284;1242;69227;-69
2023/11/29 01:17:43;;;;;;;;;;;;;;;2.93;100.00;95288.90;110204;1240;69092;-69
2023/11/29 01:20:17;;;;;;;;;;;;;;;2.91;100.00;95291.73;110224;1242;59699;-69
2023/11/29 01:22:47;;;;;;;;;;;;;;;2.83;100.00;95295.67;110291;1242;59685;-69
2023/11/29 01:25:20;;;;;;;;;;;;;;;2.86;100.00;95301.11;110325;1240;71414;-69
2023/11/29 01:27:50;;;;;;;;;;;;;;;2.79;100.00;95306.98;110173;1244;69076;-69
2023/11/29 01:30:22;;;;;;;;;;;;;;;2.61;100.00;95308.97;110129;1245;68459;-68
2023/11/29 01:32:52;;;;;;;;;;;;;;;2.64;100.00;95305.02;110213;1242;59727;-69
2023/11/29 01:35:24;;;;;;;;;;;;;;;2.55;100.00;95312.56;110294;1241;59734;-69
2023/11/29 01:37:58;;;;;;;;;;;;;;;2.64;100.00;95323.27;110259;1240;71645;-69
2023/11/29 01:40:29;;;;;;;;;;;;;;;2.62;100.00;95324.11;110287;1242;69891;-69
2023/11/29 01:42:59;;;;;;;;;;;;;;;2.61;100.00;95325.00;110118;1241;67819;-69
2023/11/29 01:45:30;;;;;;;;;;;;;;;2.53;100.00;95325.60;110161;1244;59666;-69
2023/11/29 01:48:01;;;;;;;;;;;;;;;2.57;100.00;95329.82;110289;1241;59753;-68
2023/11/29 01:50:37;;;;;;;;;;;;;;;2.48;100.00;95336.45;110278;1242;71326;-69
2023/11/29 01:53:11;;;;;;;;;;;;;;;2.45;100.00;95341.13;110298;1242;69244;-69
2023/11/29 01:55:48;;;;;;;;;;;;;;;2.48;100.00;95345.90;110179;1241;69239;-69
2023/11/29 01:58:23;;;;;;;;;;;;;;;2.41;100.00;95356.06;110173;1244;59772;-69
2023/11/29 02:00:57;;;;;;;;;;;;;;;2.39;100.00;95366.86;110195;1244;59766;-69
2023/11/29 02:03:29;;;;;;;;;;;;;;;2.37;100.00;95378.31;110165;1243;71802;-69
2023/11/29 02:06:02;;;;;;;;;;;;;;;2.35;100.00;95384.36;110148;1244;69177;-69
2023/11/29 02:08:32;;;;;;;;;;;;;;;2.24;100.00;95389.58;110111;1244;68365;-69
2023/11/29 02:11:10;;;;;;;;;;;;;;;2.26;100.00;95397.37;110137;1242;59698;-70
2023/11/29 02:13:40;;;;;;;;;;;;;;;2.27;100.00;95400.89;110147;1243;59750;-70
2023/11/29 02:16:13;;;;;;;;;;;;;;;2.23;100.00;95408.39;110099;1244;71814;-70
2023/11/29 02:18:44;;;;;;;;;;;;;;;2.22;100.00;95410.92;109771;1248;69224;-70
2023/11/29 02:21:18;;;;;;;;;;;;;;;2.23;100.00;95416.45;110113;1245;67997;-68
2023/11/29 02:24:17;;;;;;;;;;;;;;;2.15;100.00;95425.64;110104;1244;59751;-69
2023/11/29 02:26:57;;;;;;;;;;;;;;;2.18;100.00;95421.49;110124;1245;59682;-69
2023/11/29 02:29:36;;;;;;;;;;;;;;;2.17;100.00;95423.31;110236;1243;69739;-69
2023/11/29 02:32:12;;;;;;;;;;;;;;;2.12;100.00;95432.21;110125;1243;68361;-69
2023/11/29 02:34:48;;;;;;;;;;;;;;;2.14;100.00;95441.34;110193;1241;68959;-69
2023/11/29 02:37:26;;;;;;;;;;;;;;;2.08;100.00;95452.59;110136;1242;59766;-69
2023/11/29 02:40:04;;;;;;;;;;;;;;;2.05;100.00;95461.05;110152;1243;59692;-69
2023/11/29 02:42:40;;;;;;;;;;;;;;;2.09;100.00;95464.74;110150;1241;71399;-69
2023/11/29 02:45:12;;;;;;;;;;;;;;;2.00;100.00;95468.27;110262;1243;69145;-69
2023/11/29 02:47:46;;;;;;;;;;;;;;;2.00;100.00;95474.97;110143;1245;68708;-69
2023/11/29 02:50:21;;;;;;;;;;;;;;;1.93;100.00;95484.10;110024;1245;59732;-69
2023/11/29 02:52:56;;;;;;;;;;;;;;;1.96;100.00;95480.92;110186;1244;59744;-69
2023/11/29 02:55:31;;;;;;;;;;;;;;;1.92;100.00;95481.75;110125;1243;70614;-69
2023/11/29 02:58:16;;;;;;;;;;;;;;;1.98;100.00;95486.48;110113;1244;69327;-69
2023/11/29 03:00:51;;;;;;;;;;;;;;;1.96;100.00;95491.05;110008;1241;68497;-69
2023/11/29 03:03:36;;;;;;;;;;;;;;;1.93;100.00;95495.20;110147;1245;59695;-68
2023/11/29 03:06:17;;;;;;;;;;;;;;;1.86;100.00;95505.48;110172;1245;59672;-68
2023/11/29 03:08:50;;;;;;;;;;;;;;;1.88;100.00;95505.21;110167;1241;71242;-69
2023/11/29 03:11:20;;;;;;;;;;;;;;;1.88;100.00;95505.33;110104;1241;69092;-69
2023/11/29 03:13:51;;;;;;;;;;;;;;;1.86;100.00;95505.16;110093;1244;69261;-69
2023/11/29 03:16:22;;;;;;;;;;;;;;;1.82;100.00;95516.23;110152;1241;59760;-68
2023/11/29 03:18:53;;;;;;;;;;;;;;;1.81;100.00;95514.80;110144;1243;59760;-69
2023/11/29 03:21:24;;;;;;;;;;;;;;;1.79;100.00;95522.14;110171;1241;70773;-68
2023/11/29 03:23:56;;;;;;;;;;;;;;;1.73;100.00;95526.33;110187;1245;69115;-68
2023/11/29 03:26:28;;;;;;;;;;;;;;;1.71;100.00;95531.40;109842;1245;69363;-68
2023/11/29 03:28:59;;;;;;;;;;;;;;;1.64;100.00;95527.79;110139;1241;59688;-68
2023/11/29 03:31:32;;;;;;;;;;;;;;;1.69;100.00;95532.24;110181;1241;59698;-68
2023/11/29 03:34:04;;;;;;;;;;;;;;;1.61;100.00;95535.23;110113;1244;70669;-69
2023/11/29 03:36:35;;;;;;;;;;;;;;;1.67;100.00;95541.83;110144;1243;68269;-69
2023/11/29 03:39:09;;;;;;;;;;;;;;;1.63;100.00;95543.31;110195;1247;69302;-69
2023/11/29 03:41:41;;;;;;;;;;;;;;;1.55;100.00;95543.33;110138;1244;59744;-69
2023/11/29 03:44:11;;;;;;;;;;;;;;;1.52;100.00;95547.11;110131;1244;59679;-69
2023/11/29 03:46:45;;;;;;;;;;;;;;;1.50;100.00;95549.64;110158;1241;71375;-69
2023/11/29 03:49:16;;;;;;;;;;;;;;;1.48;100.00;95558.34;110150;1241;68432;-69
2023/11/29 03:51:46;;;;;;;;;;;;;;;1.41;100.00;95562.73;110077;1244;69573;-69
2023/11/29 03:54:17;;;;;;;;;;;;;;;1.41;100.00;95576.15;110177;1241;59734;-69
2023/11/29 03:56:52;;;;;;;;;;;;;;;1.39;100.00;95574.77;110211;1241;60060;-70
2023/11/29 03:59:25;;;;;;;;;;;;;;;1.43;100.00;95584.93;110118;1244;69826;-69
2023/11/29 04:01:59;;;;;;;;;;;;;;;1.45;100.00;95590.48;110225;1242;68474;-69
2023/11/29 04:04:32;;;;;;;;;;;;;;;1.45;100.00;95596.16;110145;1241;69359;-69
2023/11/29 04:07:03;;;;;;;;;;;;;;;1.46;100.00;95598.16;110275;1242;59724;-69
2023/11/29 04:09:34;;;;;;;;;;;;;;;1.43;100.00;95601.57;110094;1241;59630;-69
2023/11/29 04:12:04;;;;;;;;;;;;;;;1.46;100.00;95609.81;110101;1241;71409;-69
2023/11/29 04:14:35;;;;;;;;;;;;;;;1.47;100.00;95613.72;110113;1244;68506;-69
2023/11/29 04:17:07;;;;;;;;;;;;;;;1.46;100.00;95615.30;110201;1242;68348;-70
2023/11/29 04:19:39;;;;;;;;;;;;;;;1.45;100.00;95616.73;110222;1242;59761;-69
2023/11/29 04:22:11;;;;;;;;;;;;;;;1.45;100.00;95618.68;110259;1242;59621;-70
2023/11/29 04:24:42;;;;;;;;;;;;;;;1.42;100.00;95617.81;110206;1242;71542;-69
2023/11/29 04:27:13;;;;;;;;;;;;;;;1.43;100.00;95617.08;110311;1242;67564;-69
2023/11/29 04:29:43;;;;;;;;;;;;;;;1.42;100.00;95616.25;110274;1242;69267;-69
2023/11/29 04:32:13;;;;;;;;;;;;;;;1.39;100.00;95627.83;110167;1244;59737;-68
2023/11/29 04:34:43;;;;;;;;;;;;;;;1.37;100.00;95633.79;110320;1241;59696;-68
2023/11/29 04:37:18;;;;;;;;;;;;;;;1.34;100.00;95645.11;110318;1242;69688;-67
2023/11/29 04:39:49;;;;;;;;;;;;;;;1.35;100.00;95653.29;110184;1244;69234;-69
2023/11/29 04:42:20;;;;;;;;;;;;;;;1.32;100.00;95659.15;110239;1245;69657;-68
2023/11/29 04:44:51;;;;;;;;;;;;;;;1.31;100.00;95657.98;110319;1240;59701;-68
2023/11/29 04:47:23;;;;;;;;;;;;;;;1.31;100.00;95664.73;110408;1244;59655;-68
2023/11/29 04:49:54;;;;;;;;;;;;;;;1.27;100.00;95678.84;110387;1242;71359;-68
2023/11/29 04:52:24;;;;;;;;;;;;;;;1.28;100.00;95694.25;110377;1242;68920;-69
2023/11/29 04:54:54;;;;;;;;;;;;;;;1.26;100.00;95698.96;110317;1242;69164;-68
2023/11/29 04:57:24;;;;;;;;;;;;;;;1.29;100.00;95702.22;110350;1240;59820;-69
2023/11/29 04:59:55;;;;;;;;;;;;;;;1.27;100.00;95707.71;110277;1242;59743;-69
2023/11/29 05:02:25;;;;;;;;;;;;;;;1.26;100.00;95707.05;110265;1242;71274;-69
2023/11/29 05:04:55;;;;;;;;;;;;;;;1.25;100.00;95703.04;110206;1240;69047;-69
2023/11/29 05:07:23;;;;;;;;;;;;;;;1.24;100.00;95702.73;110228;1241;69119;-70
2023/11/29 05:09:53;;;;;;;;;;;;;;;1.21;100.00;95703.93;110260;1242;59683;-69
2023/11/29 05:12:24;;;;;;;;;;;;;;;1.19;100.00;95702.33;110216;1242;59599;-68
2023/11/29 05:14:54;;;;;;;;;;;;;;;1.17;100.00;95709.52;110211;1241;71448;-67
2023/11/29 05:17:23;;;;;;;;;;;;;;;1.13;100.00;95715.98;110218;1242;69502;-69
2023/11/29 05:19:53;;;;;;;;;;;;;;;1.11;100.00;95726.85;110227;1241;68653;-68
2023/11/29 05:22:23;;;;;;;;;;;;;;;1.11;100.00;95734.45;110224;1241;59753;-68
2023/11/29 05:24:53;;;;;;;;;;;;;;;1.07;100.00;95736.23;110212;1242;59691;-68
2023/11/29 05:27:23;;;;;;;;;;;;;;;1.02;100.00;95737.89;110252;1242;70802;-70
2023/11/29 05:29:52;;;;;;;;;;;;;;;0.97;100.00;95742.46;110255;1242;68360;-70
2023/11/29 05:32:22;;;;;;;;;;;;;;;0.92;100.00;95743.16;110232;1241;69178;-69
2023/11/29 05:34:52;;;;;;;;;;;;;;;0.87;100.00;95747.02;110266;1242;59747;-68
2023/11/29 05:37:22;;;;;;;;;;;;;;;0.84;100.00;95753.41;110302;1242;59669;-69
2023/11/29 05:39:52;;;;;;;;;;;;;;;0.80;100.00;95759.30;110269;1242;72050;-69
2023/11/29 05:42:22;;;;;;;;;;;;;;;0.79;100.00;95771.07;110216;1242;69277;-68
2023/11/29 05:44:54;;;;;;;;;;;;;;;0.80;100.00;95779.91;110297;1241;69507;-68
2023/11/29 05:47:23;;;;;;;;;;;;;;;0.80;100.00;95783.67;110308;1242;59633;-68
2023/11/29 05:49:53;;;;;;;;;;;;;;;0.80;100.00;95790.37;110375;1241;59759;-68
2023/11/29 05:52:23;;;;;;;;;;;;;;;0.79;100.00;95798.14;110278;1242;71411;-68
2023/11/29 05:54:52;;;;;;;;;;;;;;;0.74;100.00;95799.96;110293;1241;69624;-68
2023/11/29 05:57:22;;;;;;;;;;;;;;;0.76;100.00;95802.91;110269;1240;68771;-69
2023/11/29 05:59:55;;;;;;;;;;;;;;;0.78;100.00;95805.21;110321;1241;59706;-69
2023/11/29 06:02:25;;;;;;;;;;;;;;;0.72;100.00;95809.99;110336;1242;59699;-68
2023/11/29 06:04:55;;;;;;;;;;;;;;;0.77;100.00;95816.08;110381;1241;71834;-68
2023/11/29 06:07:24;;;;;;;;;;;;;;;0.78;100.00;95813.96;110278;1241;69799;-69
2023/11/29 06:09:53;;;;;;;;;;;;;;;0.79;100.00;95814.94;110272;1240;69940;-69
2023/11/29 06:12:23;;;;;;;;;;;;;;;0.82;100.00;95820.79;110271;1241;60113;-69
2023/11/29 06:14:53;;;;;;;;;;;;;;;0.82;100.00;95829.33;110293;1240;59659;-69
2023/11/29 06:17:26;;;;;;;;;;;;;;;0.85;100.00;95835.17;110335;1241;71262;-69
2023/11/29 06:20:01;;;;;;;;;;;;;;;0.85;100.00;95843.09;110268;1240;68290;-69
2023/11/29 06:22:32;;;;;;;;;;;;;;;0.85;100.00;95849.20;110246;1242;69845;-69
2023/11/29 06:25:01;;;;;;;;;;;;;;;0.85;100.00;95852.65;110312;1242;59694;-69
2023/11/29 06:27:30;;;;;;;;;;;;;;;0.88;100.00;95855.23;110264;1240;59639;-69
2023/11/29 06:29:59;;;;;;;;;;;;;;;0.92;100.00;95865.28;110252;1241;71619;-69
2023/11/29 06:32:29;;;;;;;;;;;;;;;0.93;100.00;95866.94;110330;1241;69233;-69
2023/11/29 06:34:58;;;;;;;;;;;;;;;0.95;100.00;95873.81;110254;1242;69878;-69
2023/11/29 06:37:27;;;;;;;;;;;;;;;0.94;100.00;95880.42;110231;1240;59686;-69
2023/11/29 06:39:58;;;;;;;;;;;;;;;0.96;100.00;95885.25;110293;1241;59676;-69
2023/11/29 06:42:27;;;;;;;;;;;;;;;0.97;100.00;95888.29;110279;1241;71402;-69
2023/11/29 06:44:57;;;;;;;;;;;;;;;0.98;100.00;95890.29;110255;1242;69335;-69
2023/11/29 06:47:26;;;;;;;;;;;;;;;0.96;100.00;95894.18;110262;1241;69707;-69
2023/11/29 06:49:55;;;;;;;;;;;;;;;0.96;100.00;95897.98;110098;1244;59724;-70
2023/11/29 06:52:26;;;;;;;;;;;;;;;0.98;100.00;95903.84;110300;1240;59748;-69
2023/11/29 06:54:55;;;;;;;;;;;;;;;0.95;100.00;95909.83;110400;1242;70535;-69
2023/11/29 06:57:25;;;;;;;;;;;;;;;0.98;100.00;95906.79;110282;1241;69195;-69
2023/11/29 06:59:54;;;;;;;;;;;;;;;0.97;100.00;95902.88;110220;1241;68390;-69
2023/11/29 07:02:24;;;;;;;;;;;;;;;0.95;100.00;95909.02;110265;1241;59667;-69
2023/11/29 07:04:53;;;;;;;;;;;;;;;0.96;100.00;95913.94;110279;1242;59718;-68
2023/11/29 07:07:24;;;;;;;;;;;;;;;1.02;100.00;95914.96;110323;1241;71638;-68
2023/11/29 07:09:53;;;;;;;;;;;;;;;1.08;100.00;95920.77;110294;1243;68493;-69
2023/11/29 07:12:22;;;;;;;;;;;;;;;1.12;100.00;95922.27;110155;1240;68515;-69
2023/11/29 07:14:53;;;;;;;;;;;;;;;1.15;100.00;95928.40;110260;1240;59785;-69
2023/11/29 07:17:23;;;;;;;;;;;;;;;1.17;100.00;95932.94;110282;1240;59682;-69
2023/11/29 07:19:52;;;;;;;;;;;;;;;1.20;100.00;95934.83;110287;1241;71731;-68
2023/11/29 07:22:24;;;;;;;;;;;;;;;1.19;100.00;95939.00;110269;1241;69087;-68
2023/11/29 07:24:55;;;;;;;;;;;;;;;1.20;100.00;95937.55;110295;1241;68568;-68
2023/11/29 07:27:24;;;;;;;;;;;;;;;1.21;100.00;95940.27;110281;1241;59708;-69
2023/11/29 07:29:54;;;;;;;;;;;;;;;1.21;100.00;95944.52;110291;1241;59737;-69
2023/11/29 07:32:23;;;;;;;;;;;;;;;1.23;100.00;95950.75;110296;1240;70248;-69
2023/11/29 07:34:54;;;;;;;;;;;;;;;1.24;100.00;95954.15;110293;1241;69222;-69
2023/11/29 07:37:23;;;;;;;;;;;;;;;1.23;100.00;95948.52;110330;1240;69887;-69
2023/11/29 07:39:52;;;;;;;;;;;;;;;1.19;100.00;95949.27;110234;1241;59705;-69
2023/11/29 07:42:21;;;;;;;;;;;;;;;1.16;100.00;95956.51;110318;1241;59663;-69
2023/11/29 07:44:50;;;;;;;;;;;;;;;1.17;100.00;95965.40;110378;1241;70987;-68
2023/11/29 07:47:19;;;;;;;;;;;;;;;1.18;100.00;95968.60;110311;1242;69245;-69
2023/11/29 07:49:48;;;;;;;;;;;;;;;1.14;100.00;95966.73;110337;1241;69247;-68
2023/11/29 07:52:18;;;;;;;;;;;;;;;1.13;100.00;95966.27;110317;1241;59808;-69
2023/11/29 07:54:47;;;;;;;;;;;;;;;1.11;100.00;95976.36;110359;1241;59690;-69
2023/11/29 07:57:17;;;;;;;;;;;;;;;1.12;100.00;95981.77;110304;1242;70862;-68
2023/11/29 07:59:47;;;;;;;;;;;;;;;1.14;100.00;95989.56;110316;1241;69761;-69
2023/11/29 08:02:16;;;;;;;;;;;;;;;1.15;100.00;95988.80;110356;1240;68526;-68
2023/11/29 08:04:45;;;;;;;;;;;;;;;1.17;100.00;95988.20;110285;1241;59689;-68
2023/11/29 08:07:14;;;;;;;;;;;;;;;1.17;100.00;95996.64;110312;1241;59658;-69
2023/11/29 08:09:44;;;;;;;;;;;;;;;1.16;100.00;95998.04;110317;1242;71412;-70
2023/11/29 08:12:15;;;;;;;;;;;;;;;1.18;100.00;96000.33;110437;1242;69435;-69
2023/11/29 08:14:45;;;;;;;;;;;;;;;1.19;100.00;96008.31;110346;1241;70030;-69
2023/11/29 08:17:16;;;;;;;;;;;;;;;1.20;100.00;96010.84;110441;1242;59684;-69
2023/11/29 08:19:45;;;;;;;;;;;;;;;1.20;100.00;96019.42;110339;1242;59665;-70
2023/11/29 08:22:15;;;;;;;;;;;;;;;1.16;100.00;96021.75;110399;1241;69660;-69
2023/11/29 08:24:44;;;;;;;;;;;;;;;1.17;100.00;96019.23;110450;1241;68478;-69
2023/11/29 08:27:15;;;;;;;;;;;;;;;1.17;100.00;96023.05;110268;1241;69211;-69
2023/11/29 08:29:44;;;;;;;;;;;;;;;1.10;100.00;96022.41;110305;1241;59711;-69
2023/11/29 08:32:14;;;;;;;;;;;;;;;1.07;100.00;96026.36;110286;1241;59780;-69
2023/11/29 08:34:44;;;;;;;;;;;;;;;1.07;100.00;96028.95;110355;1241;70467;-69
2023/11/29 08:37:13;;;;;;;;;;;;;;;1.07;100.00;96027.21;110394;1241;69831;-69
2023/11/29 08:39:42;;;;;;;;;;;;;;;1.08;100.00;96033.02;110288;1245;69883;-69
2023/11/29 08:42:12;;;;;;;;;;;;;;;1.14;100.00;96031.11;110271;1241;59766;-70
2023/11/29 08:44:42;;;;;;;;;;;;;;;1.20;100.00;96027.47;110313;1241;59704;-69
2023/11/29 08:47:11;;;;;;;;;;;;;;;1.25;100.00;96021.37;110302;1241;71972;-69
2023/11/29 08:49:41;;;;;;;;;;;;;;;1.32;100.00;96013.77;110294;1241;69256;-70
2023/11/29 08:52:13;;;;;;;;;;;;;;;1.35;100.00;96008.12;110316;1241;69085;-69
2023/11/29 08:54:44;;;;;;;;;;;;;;;1.41;100.00;96015.67;110267;1242;59664;-69
2023/11/29 08:57:12;;;;;;;;;;;;;;;1.49;100.00;96019.44;110322;1242;59686;-69
2023/11/29 08:59:41;;;;;;;;;;;;;;;1.58;100.00;96025.11;110296;1240;71755;-70
2023/11/29 09:02:10;;;;;;;;;;;;;;;1.56;100.00;96030.04;110346;1240;68365;-70
2023/11/29 09:04:40;;;;;;;;;;;;;;;1.69;100.00;96037.02;110263;1241;69761;-70
2023/11/29 09:07:09;;;;;;;;;;;;;;;1.76;100.00;96038.99;110322;1240;59695;-70
2023/11/29 09:09:40;;;;;;;;;;;;;;;1.82;100.00;96033.98;110262;1241;59758;-70
2023/11/29 09:12:09;;;;;;;;;;;;;;;1.89;100.00;96037.66;110175;1240;71826;-69
2023/11/29 09:14:38;;;;;;;;;;;;;;;1.96;100.00;96037.10;110297;1242;70186;-70
2023/11/29 09:17:08;;;;;;;;;;;;;;;1.98;100.00;96039.38;110308;1241;69885;-70
2023/11/29 09:19:38;;;;;;;;;;;;;;;1.88;100.00;96040.48;110258;1241;59746;-70
2023/11/29 09:22:07;;;;;;;;;;;;;;;1.98;100.00;96037.67;110328;1241;59737;-70
2023/11/29 09:24:37;;;;;;;;;;;;;;;2.04;100.00;96036.29;110309;1241;71227;-69
2023/11/29 09:27:06;;;;;;;;;;;;;;;2.09;100.00;96040.28;110274;1242;69834;-69
2023/11/29 09:29:35;;;;;;;;;;;;;;;2.11;100.00;96041.70;110304;1242;69121;-70
2023/11/29 09:32:04;;;;;;;;;;;;;;;2.15;100.00;96040.57;110308;1241;59646;-70
2023/11/29 09:34:33;;;;;;;;;;;;;;;2.18;100.00;96041.46;110134;1241;59699;-69
2023/11/29 09:37:03;;;;;;;;;;;;;;;2.21;100.00;96044.88;110159;1240;71898;-69
2023/11/29 09:39:32;;;;;;;;;;;;;;;2.24;100.00;96046.21;110307;1242;69059;-69
2023/11/29 09:42:02;;;;;;;;;;;;;;;2.28;100.00;96049.73;110322;1241;70184;-70
2023/11/29 09:44:32;;;;;;;;;;;;;;;2.32;100.00;96056.76;110328;1241;59724;-69
2023/11/29 09:47:02;;;;;;;;;;;;;;;2.33;100.00;96058.54;110404;1241;59704;-70
2023/11/29 09:49:32;;;;;;;;;;;;;;;2.25;100.00;96059.55;110330;1240;70617;-70
2023/11/29 09:52:02;;;;;;;;;;;;;;;2.24;100.00;96062.19;110380;1241;68515;-70
2023/11/29 09:54:32;;;;;;;;;;;;;;;2.11;100.00;96065.23;110310;1241;68431;-70
2023/11/29 09:57:01;;;;;;;;;;;;;;;2.00;100.00;96074.63;110286;1241;59760;-70
2023/11/29 09:59:30;;;;;;;;;;;;;;;1.97;100.00;96078.05;110303;1240;59766;-69
2023/11/29 10:02:03;;;;;;;;;;;;;;;1.98;100.00;96079.91;110362;1241;71855;-70
2023/11/29 10:04:39;;;;;;;;;;;;;;;1.98;100.00;96084.88;110393;1241;68490;-70
2023/11/29 10:07:09;;;;;;;;;;;;;;;1.99;100.00;96090.17;110308;1241;69146;-70
2023/11/29 10:09:38;;;;;;;;;;;;;;;2.03;100.00;96092.52;110273;1241;59705;-69
2023/11/29 10:12:08;;;;;;;;;;;;;;;2.07;100.00;96097.48;110364;1241;59675;-69
2023/11/29 10:14:38;;;;;;;;;;;;;;;2.03;100.00;96100.40;110137;1240;71333;-70
2023/11/29 10:17:16;;;;;;;;;;;;;;;2.00;100.00;96106.28;110341;1241;69202;-69
2023/11/29 10:19:46;;;;;;;;;;;;;;;1.93;100.00;96106.31;110278;1242;69672;-70
2023/11/29 10:22:17;;;;;;;;;;;;;;;1.94;100.00;96113.17;110254;1241;59686;-69
2023/11/29 10:24:47;;;;;;;;;;;;;;;1.92;100.00;96115.86;110358;1241;59776;-70
2023/11/29 10:27:18;;;;;;;;;;;;;;;1.93;100.00;96120.24;110349;1242;70399;-70
2023/11/29 10:29:47;;;;;;;;;;;;;;;1.93;100.00;96122.34;110361;1242;69335;-70
2023/11/29 10:32:18;;;;;;;;;;;;;;;1.90;100.00;96122.48;110280;1240;68383;-69
2023/11/29 10:34:47;;;;;;;;;;;;;;;1.89;100.00;96132.39;110383;1241;59664;-70
2023/11/29 10:37:18;;;;;;;;;;;;;;;1.84;100.00;96137.98;110356;1241;59741;-70
2023/11/29 10:39:49;;;;;;;;;;;;;;;1.78;100.00;96144.14;110355;1241;71383;-70
2023/11/29 10:42:19;;;;;;;;;;;;;;;1.75;100.00;96145.54;110336;1240;69433;-70
2023/11/29 10:44:49;;;;;;;;;;;;;;;1.64;100.00;96149.95;110320;1241;69258;-69
2023/11/29 10:47:22;;;;;;;;;;;;;;;1.66;100.00;96153.83;110306;1241;59661;-70
2023/11/29 10:50:02;;;;;;;;;;;;;;;1.65;100.00;96153.20;110293;1241;59699;-70
2023/11/29 10:52:33;;;;;;;;;;;;;;;1.63;100.00;96154.13;110433;1241;70920;-69
2023/11/29 10:55:02;;;;;;;;;;;;;;;1.64;100.00;96153.57;110349;1241;68492;-69
2023/11/29 10:57:36;;;;;;;;;;;;;;;1.63;100.00;96157.57;110430;1242;68516;-69
2023/11/29 11:00:07;;;;;;;;;;;;;;;1.62;100.00;96155.73;109865;1241;613257;-69
2023/11/29 11:02:36;;;;;;;;;;;;;;;1.60;100.00;96158.27;110475;1240;59807;-69
2023/11/29 11:05:07;;;;;;;;;;;;;;;1.58;100.00;96162.49;110353;1241;71985;-69
2023/11/29 11:07:45;;;;;;;;;;;;;;;1.54;100.00;96165.30;110389;1241;68475;-69
2023/11/29 11:10:15;;;;;;;;;;;;;;;1.45;100.00;96173.70;110329;1241;69104;-69
2023/11/29 11:12:44;;;;;;;;;;;;;;;1.40;100.00;96183.20;110328;1241;59675;-69
2023/11/29 11:15:20;;;;;;;;;;;;;;;1.36;100.00;96185.35;110353;1241;59707;-68
2023/11/29 11:18:02;;;;;;;;;;;;;;;1.28;100.00;96181.86;110339;1241;71189;-69
2023/11/29 11:20:50;;;;;;;;;;;;;;;1.21;100.00;96187.20;110322;1242;68486;-69
2023/11/29 11:23:24;;;;;;;;;;;;;;;1.17;100.00;96190.51;110401;1242;69207;-69
2023/11/29 11:25:57;;;;;;;;;;;;;;;1.14;100.00;96193.42;110424;1241;59667;-69
2023/11/29 11:28:31;;;;;;;;;;;;;;;1.08;100.00;96190.54;110290;1241;59725;-69
2023/11/29 11:31:02;;;;;;;;;;;;;;;1.01;100.00;96195.82;110449;1241;71466;-69
2023/11/29 11:34:06;;;;;;;;;;;;;;;0.96;100.00;96199.05;110347;1241;69225;-69
2023/11/29 11:36:37;;;;;;;;;;;;;;;0.91;100.00;96201.52;109445;1248;67415;-69
2023/11/29 11:39:07;;;;;;;;;;;;;;;0.90;100.00;96205.04;110206;1241;59753;-69
2023/11/29 11:41:37;;;;;;;;;;;;;;;0.87;100.00;96208.09;110329;1242;60108;-69
2023/11/29 11:44:06;;;;;;;;;;;;;;;0.84;100.00;96210.30;110338;1241;70644;-69
2023/11/29 11:46:36;;;;;;;;;;;;;;;0.83;100.00;96217.91;110295;1241;68490;-70
2023/11/29 11:49:08;;;;;;;;;;;;;;;0.83;100.00;96222.88;110280;1242;69241;-70
2023/11/29 11:51:37;;;;;;;;;;;;;;;0.86;100.00;96223.61;110406;1242;60103;-70
2023/11/29 11:54:08;;;;;;;;;;;;;;;0.85;100.00;96228.30;110315;1242;59678;-70
2023/11/29 11:56:37;;;;;;;;;;;;;;;0.85;100.00;96228.31;110125;1241;71321;-70
2023/11/29 11:59:07;;;;;;;;;;;;;;;0.85;100.00;96229.12;110301;1242;69807;-69
2023/11/29 12:01:36;;;;;;;;;;;;;;;0.85;100.00;96231.23;110317;1240;69103;-70
2023/11/29 12:04:06;;;;;;;;;;;;;;;0.84;100.00;96236.27;110280;1241;59741;-68
2023/11/29 12:06:37;;;;;;;;;;;;;;;0.82;100.00;96234.27;110360;1242;59637;-68
2023/11/29 12:09:09;;;;;;;;;;;;;;;0.81;100.00;96237.58;110357;1241;71271;-68
2023/11/29 12:11:37;;;;;;;;;;;;;;;0.80;100.00;96243.66;110310;1241;70185;-69
2023/11/29 12:14:09;;;;;;;;;;;;;;;0.82;100.00;96248.13;110392;1241;70250;-69
2023/11/29 12:16:38;;;;;;;;;;;;;;;0.83;100.00;96249.64;110363;1242;59742;-69
2023/11/29 12:19:10;;;;;;;;;;;;;;;0.82;100.00;96256.55;110358;1242;59728;-69
2023/11/29 12:21:42;;;;;;;;;;;;;;;0.83;100.00;96255.17;110322;1242;72005;-70
2023/11/29 12:24:11;;;;;;;;;;;;;;;0.79;100.00;96259.45;110352;1242;69370;-69
2023/11/29 12:26:40;;;;;;;;;;;;;;;0.77;100.00;96261.43;110336;1242;69299;-69
2023/11/29 12:29:12;;;;;;;;;;;;;;;0.76;100.00;96266.00;110263;1242;59702;-69
2023/11/29 12:31:41;;;;;;;;;;;;;;;0.72;100.00;96268.92;110308;1241;59695;-69
2023/11/29 12:34:10;;;;;;;;;;;;;;;0.71;100.00;96270.16;110327;1241;71028;-69
2023/11/29 12:36:44;;;;;;;;;;;;;;;0.70;100.00;96271.09;110307;1242;69215;-69
2023/11/29 12:39:15;;;;;;;;;;;;;;;0.68;100.00;96276.33;110337;1242;69853;-69
2023/11/29 12:41:44;;;;;;;;;;;;;;;0.66;100.00;96284.15;110332;1241;59724;-69
2023/11/29 12:44:13;;;;;;;;;;;;;;;0.64;100.00;96282.89;110313;1242;59743;-68
2023/11/29 12:46:42;;;;;;;;;;;;;;;0.61;100.00;96287.19;110304;1242;71280;-69
2023/11/29 12:49:12;;;;;;;;;;;;;;;0.58;100.00;96296.91;110444;1242;69284;-70
2023/11/29 12:51:41;;;;;;;;;;;;;;;0.55;100.00;96300.81;110363;1242;69397;-69
2023/11/29 12:54:11;;;;;;;;;;;;;;;0.54;100.00;96299.70;110326;1241;59680;-69
2023/11/29 12:56:51;;;;;;;;;;;;;;;0.51;100.00;96305.83;110319;1242;59681;-69